sensor_id;sensor_type;location;lat;lon;timestamp;pressure;altitude;pressure_sealevel;temperature;humidity
67842;BME280;54642;59.126;37.876;2023-02-22T00:00:39;99191.19;;;-13.71;65.49
67842;BME280;54642;59.126;37.876;2023-02-22T00:03:15;99213.94;;;-13.67;65.85
67842;BME280;54642;59.126;37.876;2023-02-22T00:05:42;99210.56;;;-13.67;65.57
67842;BME280;54642;59.126;37.876;2023-02-22T00:08:15;99201.50;;;-13.77;65.52
67842;BME280;54642;59.126;37.876;2023-02-22T00:10:41;99200.41;;;-13.81;65.77
67842;BME280;54642;59.126;37.876;2023-02-22T00:13:10;99211.09;;;-13.71;65.42
67842;BME280;54642;59.126;37.876;2023-02-22T00:15:38;99223.66;;;-13.70;65.68
67842;BME280;54642;59.126;37.876;2023-02-22T00:18:08;99151.97;;;-14.06;65.56
67842;BME280;54642;59.126;37.876;2023-02-22T00:20:38;99190.22;;;-13.84;65.78
67842;BME280;54642;59.126;37.876;2023-02-22T00:23:13;99206.75;;;-13.74;65.60
67842;BME280;54642;59.126;37.876;2023-02-22T00:25:40;99142.06;;;-14.16;65.48
67842;BME280;54642;59.126;37.876;2023-02-22T00:28:06;99197.34;;;-13.88;65.52
67842;BME280;54642;59.126;37.876;2023-02-22T00:30:33;99167.03;;;-14.05;65.74
67842;BME280;54642;59.126;37.876;2023-02-22T00:32:59;99140.81;;;-14.22;65.41
67842;BME280;54642;59.126;37.876;2023-02-22T00:35:30;99209.34;;;-13.94;65.52
67842;BME280;54642;59.126;37.876;2023-02-22T00:38:00;99232.16;;;-13.78;65.49
67842;BME280;54642;59.126;37.876;2023-02-22T00:40:29;99221.63;;;-13.86;65.93
67842;BME280;54642;59.126;37.876;2023-02-22T00:42:56;99162.78;;;-14.28;65.78
67842;BME280;54642;59.126;37.876;2023-02-22T00:45:24;99221.66;;;-13.96;65.61
67842;BME280;54642;59.126;37.876;2023-02-22T00:47:50;99181.53;;;-14.21;65.62
67842;BME280;54642;59.126;37.876;2023-02-22T00:50:17;99228.47;;;-13.93;65.55
67842;BME280;54642;59.126;37.876;2023-02-22T00:52:44;99254.09;;;-13.84;65.83
67842;BME280;54642;59.126;37.876;2023-02-22T00:55:14;99249.75;;;-13.87;65.59
67842;BME280;54642;59.126;37.876;2023-02-22T00:57:40;99163.19;;;-14.44;65.48
67842;BME280;54642;59.126;37.876;2023-02-22T01:00:09;99126.38;;;-14.70;65.69
67842;BME280;54642;59.126;37.876;2023-02-22T01:02:42;99203.84;;;-14.33;65.99
67842;BME280;54642;59.126;37.876;2023-02-22T01:05:11;99266.22;;;-13.99;66.04
67842;BME280;54642;59.126;37.876;2023-02-22T01:07:39;99259.81;;;-14.07;66.03
67842;BME280;54642;59.126;37.876;2023-02-22T01:10:07;99261.06;;;-14.12;66.02
67842;BME280;54642;59.126;37.876;2023-02-22T01:12:34;99288.91;;;-14.06;65.90
67842;BME280;54642;59.126;37.876;2023-02-22T01:15:01;99251.50;;;-14.28;66.33
67842;BME280;54642;59.126;37.876;2023-02-22T01:17:28;99276.72;;;-14.24;65.83
67842;BME280;54642;59.126;37.876;2023-02-22T01:19:55;99248.63;;;-14.23;66.27
67842;BME280;54642;59.126;37.876;2023-02-22T01:22:22;99208.09;;;-14.52;65.96
67842;BME280;54642;59.126;37.876;2023-02-22T01:24:49;99233.81;;;-14.31;66.22
67842;BME280;54642;59.126;37.876;2023-02-22T01:27:16;99259.28;;;-14.13;66.01
67842;BME280;54642;59.126;37.876;2023-02-22T01:29:43;99289.63;;;-13.97;66.00
67842;BME280;54642;59.126;37.876;2023-02-22T01:32:09;99292.25;;;-13.95;65.73
67842;BME280;54642;59.126;37.876;2023-02-22T01:34:37;99317.28;;;-14.04;65.44
67842;BME280;54642;59.126;37.876;2023-02-22T01:37:03;99235.16;;;-14.67;65.55
67842;BME280;54642;59.126;37.876;2023-02-22T01:39:31;99241.56;;;-14.49;65.67
67842;BME280;54642;59.126;37.876;2023-02-22T01:41:57;99314.69;;;-14.16;65.66
67842;BME280;54642;59.126;37.876;2023-02-22T01:44:30;99278.50;;;-14.33;65.73
67842;BME280;54642;59.126;37.876;2023-02-22T01:46:59;99304.09;;;-14.24;65.74
67842;BME280;54642;59.126;37.876;2023-02-22T01:49:32;99292.69;;;-14.32;65.29
67842;BME280;54642;59.126;37.876;2023-02-22T01:52:01;99300.75;;;-14.24;65.11
67842;BME280;54642;59.126;37.876;2023-02-22T01:54:36;99291.19;;;-14.30;65.44
67842;BME280;54642;59.126;37.876;2023-02-22T01:57:11;99303.50;;;-14.21;65.15
67842;BME280;54642;59.126;37.876;2023-02-22T01:59:42;99292.91;;;-14.29;65.22
67842;BME280;54642;59.126;37.876;2023-02-22T02:02:09;99259.97;;;-14.47;65.23
67842;BME280;54642;59.126;37.876;2023-02-22T02:04:35;99317.41;;;-14.13;64.76
67842;BME280;54642;59.126;37.876;2023-02-22T02:07:04;99181.09;;;-14.90;64.84
67842;BME280;54642;59.126;37.876;2023-02-22T02:09:45;99307.72;;;-14.20;64.68
67842;BME280;54642;59.126;37.876;2023-02-22T02:12:14;99334.22;;;-14.10;64.69
67842;BME280;54642;59.126;37.876;2023-02-22T02:14:42;99255.53;;;-14.61;64.78
67842;BME280;54642;59.126;37.876;2023-02-22T02:17:12;99353.91;;;-14.13;64.80
67842;BME280;54642;59.126;37.876;2023-02-22T02:20:02;99341.56;;;-14.12;65.05
67842;BME280;54642;59.126;37.876;2023-02-22T02:23:16;99342.44;;;-14.11;64.95
67842;BME280;54642;59.126;37.876;2023-02-22T02:48:14;99358.13;;;-14.53;65.35
67842;BME280;54642;59.126;37.876;2023-02-22T02:50:45;99375.31;;;-14.46;65.79
67842;BME280;54642;59.126;37.876;2023-02-22T02:53:14;99370.06;;;-14.49;65.83
67842;BME280;54642;59.126;37.876;2023-02-22T02:55:42;99378.41;;;-14.49;65.95
67842;BME280;54642;59.126;37.876;2023-02-22T02:58:16;99312.00;;;-14.91;65.65
67842;BME280;54642;59.126;37.876;2023-02-22T03:00:42;99343.84;;;-14.76;66.14
67842;BME280;54642;59.126;37.876;2023-02-22T03:08:52;99399.84;;;-14.30;65.82
67842;BME280;54642;59.126;37.876;2023-02-22T03:11:27;99396.97;;;-14.35;65.40
67842;BME280;54642;59.126;37.876;2023-02-22T03:14:33;99396.72;;;-14.28;65.38
67842;BME280;54642;59.126;37.876;2023-02-22T03:17:14;99330.53;;;-14.87;65.33
67842;BME280;54642;59.126;37.876;2023-02-22T03:19:49;99386.84;;;-14.47;65.90
67842;BME280;54642;59.126;37.876;2023-02-22T03:22:36;99373.22;;;-14.62;65.73
67842;BME280;54642;59.126;37.876;2023-02-22T03:25:23;99381.28;;;-14.65;66.00
67842;BME280;54642;59.126;37.876;2023-02-22T03:28:02;99327.88;;;-14.99;65.93
67842;BME280;54642;59.126;37.876;2023-02-22T03:30:39;99403.06;;;-14.62;66.12
67842;BME280;54642;59.126;37.876;2023-02-22T03:33:18;99391.59;;;-14.70;66.12
67842;BME280;54642;59.126;37.876;2023-02-22T03:35:49;99396.56;;;-14.70;66.35
67842;BME280;54642;59.126;37.876;2023-02-22T03:38:23;99381.97;;;-14.86;66.11
67842;BME280;54642;59.126;37.876;2023-02-22T03:40:52;99391.22;;;-14.75;66.18
67842;BME280;54642;59.126;37.876;2023-02-22T03:43:26;99404.41;;;-14.66;66.30
67842;BME280;54642;59.126;37.876;2023-02-22T03:45:57;99406.00;;;-14.76;65.88
67842;BME280;54642;59.126;37.876;2023-02-22T03:51:16;99410.34;;;-14.74;65.72
67842;BME280;54642;59.126;37.876;2023-02-22T03:53:45;99409.59;;;-14.83;65.75
67842;BME280;54642;59.126;37.876;2023-02-22T03:56:30;99398.66;;;-14.85;66.10
67842;BME280;54642;59.126;37.876;2023-02-22T03:59:09;99318.59;;;-15.31;65.89
67842;BME280;54642;59.126;37.876;2023-02-22T04:01:36;99322.44;;;-15.35;65.91
67842;BME280;54642;59.126;37.876;2023-02-22T04:04:02;99398.47;;;-14.97;65.60
67842;BME280;54642;59.126;37.876;2023-02-22T04:06:29;99389.63;;;-15.14;65.97
67842;BME280;54642;59.126;37.876;2023-02-22T04:08:55;99391.47;;;-15.11;66.18
67842;BME280;54642;59.126;37.876;2023-02-22T04:11:21;99378.69;;;-15.16;66.04
67842;BME280;54642;59.126;37.876;2023-02-22T04:13:48;99409.41;;;-15.05;65.90
67842;BME280;54642;59.126;37.876;2023-02-22T04:16:14;99402.41;;;-15.09;66.16
67842;BME280;54642;59.126;37.876;2023-02-22T04:18:40;99390.88;;;-15.09;66.19
67842;BME280;54642;59.126;37.876;2023-02-22T04:21:06;99387.22;;;-15.23;65.78
67842;BME280;54642;59.126;37.876;2023-02-22T04:23:43;99418.72;;;-15.03;65.86
67842;BME280;54642;59.126;37.876;2023-02-22T04:26:09;99430.16;;;-15.05;65.79
67842;BME280;54642;59.126;37.876;2023-02-22T04:28:35;99424.91;;;-15.08;66.28
67842;BME280;54642;59.126;37.876;2023-02-22T04:31:16;99433.13;;;-15.09;65.94
67842;BME280;54642;59.126;37.876;2023-02-22T04:33:42;99372.56;;;-15.49;66.27
67842;BME280;54642;59.126;37.876;2023-02-22T04:36:12;99384.97;;;-15.49;65.88
67842;BME280;54642;59.126;37.876;2023-02-22T04:38:42;99434.06;;;-15.17;66.15
67842;BME280;54642;59.126;37.876;2023-02-22T04:41:08;99423.22;;;-15.28;66.23
67842;BME280;54642;59.126;37.876;2023-02-22T04:43:34;99363.19;;;-15.62;65.92
67842;BME280;54642;59.126;37.876;2023-02-22T04:46:06;99444.28;;;-15.14;66.12
67842;BME280;54642;59.126;37.876;2023-02-22T04:48:33;99404.50;;;-15.43;65.98
67842;BME280;54642;59.126;37.876;2023-02-22T04:50:59;99463.16;;;-15.16;66.40
67842;BME280;54642;59.126;37.876;2023-02-22T04:53:27;99369.50;;;-15.65;66.15
67842;BME280;54642;59.126;37.876;2023-02-22T04:55:54;99445.22;;;-15.22;66.44
67842;BME280;54642;59.126;37.876;2023-02-22T04:58:21;99431.41;;;-15.29;66.45
67842;BME280;54642;59.126;37.876;2023-02-22T05:00:47;99434.06;;;-15.17;66.55
67842;BME280;54642;59.126;37.876;2023-02-22T05:03:13;99465.69;;;-15.06;66.40
67842;BME280;54642;59.126;37.876;2023-02-22T05:05:39;99409.00;;;-15.39;66.15
67842;BME280;54642;59.126;37.876;2023-02-22T05:08:05;99469.19;;;-15.04;66.43
67842;BME280;54642;59.126;37.876;2023-02-22T05:10:32;99475.16;;;-15.02;66.13
67842;BME280;54642;59.126;37.876;2023-02-22T05:12:58;99422.94;;;-15.31;66.38
67842;BME280;54642;59.126;37.876;2023-02-22T05:15:24;99472.69;;;-15.02;66.10
67842;BME280;54642;59.126;37.876;2023-02-22T05:17:51;99391.22;;;-15.44;66.41
67842;BME280;54642;59.126;37.876;2023-02-22T05:20:27;99434.56;;;-15.21;66.11
67842;BME280;54642;59.126;37.876;2023-02-22T05:22:54;99416.47;;;-15.39;66.16
67842;BME280;54642;59.126;37.876;2023-02-22T05:25:20;99472.94;;;-14.99;66.19
67842;BME280;54642;59.126;37.876;2023-02-22T05:27:55;99458.13;;;-15.07;66.30
67842;BME280;54642;59.126;37.876;2023-02-22T05:30:26;99468.78;;;-15.08;66.09
67842;BME280;54642;59.126;37.876;2023-02-22T05:32:52;99441.38;;;-15.00;66.06
67842;BME280;54642;59.126;37.876;2023-02-22T05:35:19;99450.72;;;-14.06;64.90
67842;BME280;54642;59.126;37.876;2023-02-22T05:37:45;99480.00;;;-13.10;63.89
67842;BME280;54642;59.126;37.876;2023-02-22T05:40:12;99469.66;;;-12.28;62.95
67842;BME280;54642;59.126;37.876;2023-02-22T05:42:40;99464.25;;;-11.76;61.83
67842;BME280;54642;59.126;37.876;2023-02-22T05:45:06;99479.53;;;-11.26;60.83
67842;BME280;54642;59.126;37.876;2023-02-22T05:47:33;99473.44;;;-10.82;59.78
67842;BME280;54642;59.126;37.876;2023-02-22T05:49:59;99456.41;;;-10.63;58.89
67842;BME280;54642;59.126;37.876;2023-02-22T05:52:26;99474.56;;;-10.17;58.14
67842;BME280;54642;59.126;37.876;2023-02-22T05:54:52;99412.47;;;-10.21;57.90
67842;BME280;54642;59.126;37.876;2023-02-22T05:57:18;99474.16;;;-9.59;57.02
67842;BME280;54642;59.126;37.876;2023-02-22T05:59:44;99439.97;;;-9.18;56.57
67842;BME280;54642;59.126;37.876;2023-02-22T06:02:09;99460.09;;;-8.64;55.35
67842;BME280;54642;59.126;37.876;2023-02-22T06:04:35;99471.03;;;-8.35;54.39
67842;BME280;54642;59.126;37.876;2023-02-22T06:07:01;99469.53;;;-8.03;53.58
67842;BME280;54642;59.126;37.876;2023-02-22T06:09:27;99460.88;;;-8.08;53.19
67842;BME280;54642;59.126;37.876;2023-02-22T06:11:53;99476.31;;;-8.30;52.71
67842;BME280;54642;59.126;37.876;2023-02-22T06:14:19;99470.13;;;-8.35;52.76
67842;BME280;54642;59.126;37.876;2023-02-22T06:16:51;99476.44;;;-8.70;53.32
67842;BME280;54642;59.126;37.876;2023-02-22T06:19:17;99452.06;;;-8.58;53.47
67842;BME280;54642;59.126;37.876;2023-02-22T06:21:54;99463.47;;;-8.35;53.83
67842;BME280;54642;59.126;37.876;2023-02-22T06:24:22;99454.69;;;-7.70;52.69
67842;BME280;54642;59.126;37.876;2023-02-22T06:26:55;99460.09;;;-7.34;51.48
67842;BME280;54642;59.126;37.876;2023-02-22T06:29:25;99477.69;;;-7.19;51.57
67842;BME280;54642;59.126;37.876;2023-02-22T06:31:51;99493.94;;;-7.14;51.49
67842;BME280;54642;59.126;37.876;2023-02-22T06:34:18;99396.47;;;-7.47;51.40
67842;BME280;54642;59.126;37.876;2023-02-22T06:36:44;99480.31;;;-6.72;50.81
67842;BME280;54642;59.126;37.876;2023-02-22T06:39:13;99456.78;;;-6.72;50.41
67842;BME280;54642;59.126;37.876;2023-02-22T06:41:41;99483.00;;;-6.68;50.21
67842;BME280;54642;59.126;37.876;2023-02-22T06:44:08;99484.81;;;-6.66;49.79
67842;BME280;54642;59.126;37.876;2023-02-22T06:46:36;99475.59;;;-6.65;48.78
67842;BME280;54642;59.126;37.876;2023-02-22T06:49:02;99484.91;;;-6.64;49.18
67842;BME280;54642;59.126;37.876;2023-02-22T06:51:29;99406.97;;;-6.93;48.84
67842;BME280;54642;59.126;37.876;2023-02-22T06:53:55;99399.47;;;-6.27;48.69
67842;BME280;54642;59.126;37.876;2023-02-22T06:56:21;99415.06;;;-6.01;47.54
67842;BME280;54642;59.126;37.876;2023-02-22T06:58:47;99470.97;;;-5.25;47.73
67842;BME280;54642;59.126;37.876;2023-02-22T07:01:14;99482.34;;;-5.33;47.06
67842;BME280;54642;59.126;37.876;2023-02-22T07:03:40;99484.78;;;-5.52;46.67
67842;BME280;54642;59.126;37.876;2023-02-22T07:06:07;99494.59;;;-5.41;47.03
67842;BME280;54642;59.126;37.876;2023-02-22T07:08:33;99510.25;;;-5.48;47.01
67842;BME280;54642;59.126;37.876;2023-02-22T07:10:59;99450.84;;;-5.23;46.81
67842;BME280;54642;59.126;37.876;2023-02-22T07:13:24;99486.25;;;-5.40;46.25
67842;BME280;54642;59.126;37.876;2023-02-22T07:15:50;99466.72;;;-5.60;46.95
67842;BME280;54642;59.126;37.876;2023-02-22T07:18:17;99381.38;;;-6.36;47.44
67842;BME280;54642;59.126;37.876;2023-02-22T07:20:43;99508.03;;;-6.40;48.44
67842;BME280;54642;59.126;37.876;2023-02-22T07:23:13;99521.03;;;-7.40;50.21
67842;BME280;54642;59.126;37.876;2023-02-22T07:25:39;99531.34;;;-8.07;52.37
67842;BME280;54642;59.126;37.876;2023-02-22T07:28:05;99528.59;;;-8.79;53.44
67842;BME280;54642;59.126;37.876;2023-02-22T07:30:32;99463.56;;;-9.93;55.18
67842;BME280;54642;59.126;37.876;2023-02-22T07:33:00;99565.88;;;-9.88;56.26
67842;BME280;54642;59.126;37.876;2023-02-22T07:35:37;99503.00;;;-10.53;57.84
67842;BME280;54642;59.126;37.876;2023-02-22T07:38:05;99526.84;;;-10.70;58.01
67842;BME280;54642;59.126;37.876;2023-02-22T07:40:33;99553.31;;;-10.62;58.72
67842;BME280;54642;59.126;37.876;2023-02-22T07:43:01;99542.63;;;-10.59;59.11
67842;BME280;54642;59.126;37.876;2023-02-22T07:45:33;99557.78;;;-10.46;59.19
67842;BME280;54642;59.126;37.876;2023-02-22T07:48:00;99551.75;;;-10.36;59.11
67842;BME280;54642;59.126;37.876;2023-02-22T07:50:29;99440.28;;;-11.03;58.85
67842;BME280;54642;59.126;37.876;2023-02-22T07:52:57;99442.41;;;-10.84;60.05
67842;BME280;54642;59.126;37.876;2023-02-22T07:55:25;99542.78;;;-8.80;60.57
67842;BME280;54642;59.126;37.876;2023-02-22T07:57:54;99544.31;;;-8.82;58.17
67842;BME280;54642;59.126;37.876;2023-02-22T08:00:31;99541.91;;;-9.07;58.08
67842;BME280;54642;59.126;37.876;2023-02-22T08:03:00;99553.84;;;-9.30;58.19
67842;BME280;54642;59.126;37.876;2023-02-22T08:05:27;99546.78;;;-9.61;58.23
67842;BME280;54642;59.126;37.876;2023-02-22T08:07:53;99550.78;;;-9.76;58.04
67842;BME280;54642;59.126;37.876;2023-02-22T08:10:21;99582.59;;;-9.75;58.63
67842;BME280;54642;59.126;37.876;2023-02-22T08:12:48;99521.13;;;-10.07;58.34
67842;BME280;54642;59.126;37.876;2023-02-22T08:15:19;99508.34;;;-9.98;58.40
67842;BME280;54642;59.126;37.876;2023-02-22T08:17:45;99573.38;;;-9.76;58.85
67842;BME280;54642;59.126;37.876;2023-02-22T08:20:11;99573.28;;;-9.64;59.47
67842;BME280;54642;59.126;37.876;2023-02-22T08:22:37;99582.31;;;-9.54;59.46
67842;BME280;54642;59.126;37.876;2023-02-22T08:25:03;99573.66;;;-9.46;59.53
67842;BME280;54642;59.126;37.876;2023-02-22T08:27:29;99569.41;;;-9.47;59.57
67842;BME280;54642;59.126;37.876;2023-02-22T08:29:56;99533.13;;;-9.78;59.58
67842;BME280;54642;59.126;37.876;2023-02-22T08:32:22;99586.63;;;-9.40;59.53
67842;BME280;54642;59.126;37.876;2023-02-22T08:34:48;99565.72;;;-9.52;59.43
67842;BME280;54642;59.126;37.876;2023-02-22T08:37:15;99525.03;;;-9.73;58.93
67842;BME280;54642;59.126;37.876;2023-02-22T08:39:42;99578.72;;;-9.33;59.18
67842;BME280;54642;59.126;37.876;2023-02-22T08:42:08;99567.88;;;-9.45;58.45
67842;BME280;54642;59.126;37.876;2023-02-22T08:44:35;99574.88;;;-9.28;58.64
67842;BME280;54642;59.126;37.876;2023-02-22T08:47:01;99572.75;;;-9.22;58.66
67842;BME280;54642;59.126;37.876;2023-02-22T08:49:27;99584.44;;;-9.22;58.58
67842;BME280;54642;59.126;37.876;2023-02-22T08:51:53;99586.38;;;-9.18;58.54
67842;BME280;54642;59.126;37.876;2023-02-22T08:54:19;99583.16;;;-9.29;58.85
67842;BME280;54642;59.126;37.876;2023-02-22T08:56:44;99497.34;;;-9.75;58.63
67842;BME280;54642;59.126;37.876;2023-02-22T08:59:11;99561.44;;;-9.28;59.26
67842;BME280;54642;59.126;37.876;2023-02-22T09:01:37;99580.94;;;-8.99;58.94
67842;BME280;54642;59.126;37.876;2023-02-22T09:04:04;99579.66;;;-9.06;58.52
67842;BME280;54642;59.126;37.876;2023-02-22T09:06:31;99580.22;;;-9.10;59.12
67842;BME280;54642;59.126;37.876;2023-02-22T09:08:58;99518.78;;;-9.42;58.42
67842;BME280;54642;59.126;37.876;2023-02-22T09:11:24;99566.03;;;-9.23;58.24
67842;BME280;54642;59.126;37.876;2023-02-22T09:13:50;99580.28;;;-9.22;58.46
67842;BME280;54642;59.126;37.876;2023-02-22T09:16:16;99584.91;;;-9.28;58.49
67842;BME280;54642;59.126;37.876;2023-02-22T09:18:42;99580.22;;;-9.48;58.69
67842;BME280;54642;59.126;37.876;2023-02-22T09:21:08;99579.66;;;-9.44;59.21
67842;BME280;54642;59.126;37.876;2023-02-22T09:23:34;99519.38;;;-9.71;58.66
67842;BME280;54642;59.126;37.876;2023-02-22T09:26:00;99580.56;;;-9.30;59.02
67842;BME280;54642;59.126;37.876;2023-02-22T09:28:26;99546.25;;;-9.43;59.25
67842;BME280;54642;59.126;37.876;2023-02-22T09:30:52;99575.22;;;-9.10;59.10
67842;BME280;54642;59.126;37.876;2023-02-22T09:33:19;99601.97;;;-8.97;59.14
67842;BME280;54642;59.126;37.876;2023-02-22T09:35:48;99594.13;;;-9.02;58.54
67842;BME280;54642;59.126;37.876;2023-02-22T09:38:18;99599.66;;;-8.94;58.75
67842;BME280;54642;59.126;37.876;2023-02-22T09:40:51;99596.59;;;-8.90;58.40
67842;BME280;54642;59.126;37.876;2023-02-22T09:43:44;99496.69;;;-9.47;58.58
67842;BME280;54642;59.126;37.876;2023-02-22T09:46:32;99530.31;;;-9.18;58.34
67842;BME280;54642;59.126;37.876;2023-02-22T09:49:21;99582.28;;;-8.91;58.48
67842;BME280;54642;59.126;37.876;2023-02-22T09:51:57;99599.88;;;-8.64;58.37
67842;BME280;54642;59.126;37.876;2023-02-22T09:54:40;99590.31;;;-8.70;58.92
67842;BME280;54642;59.126;37.876;2023-02-22T09:57:16;99587.69;;;-8.71;58.58
67842;BME280;54642;59.126;37.876;2023-02-22T10:05:18;99607.03;;;-8.57;58.91
67842;BME280;54642;59.126;37.876;2023-02-22T10:07:51;99589.84;;;-8.64;58.89
67842;BME280;54642;59.126;37.876;2023-02-22T10:10:20;99608.84;;;-8.41;58.48
67842;BME280;54642;59.126;37.876;2023-02-22T10:13:04;99556.03;;;-8.83;58.20
67842;BME280;54642;59.126;37.876;2023-02-22T10:15:47;99604.88;;;-8.37;58.17
67842;BME280;54642;59.126;37.876;2023-02-22T10:18:31;99627.66;;;-8.21;58.20
67842;BME280;54642;59.126;37.876;2023-02-22T10:26:21;99628.84;;;-8.16;58.23
67842;BME280;54642;59.126;37.876;2023-02-22T10:29:18;99617.13;;;-8.02;58.21
67842;BME280;54642;59.126;37.876;2023-02-22T10:31:52;99608.63;;;-8.04;58.16
67842;BME280;54642;59.126;37.876;2023-02-22T10:34:26;99623.28;;;-7.83;58.13
67842;BME280;54642;59.126;37.876;2023-02-22T10:37:25;99625.88;;;-7.69;58.12
67842;BME280;54642;59.126;37.876;2023-02-22T10:40:00;99641.41;;;-7.61;57.87
67842;BME280;54642;59.126;37.876;2023-02-22T10:42:30;99557.88;;;-8.12;57.81
67842;BME280;54642;59.126;37.876;2023-02-22T10:44:56;99595.34;;;-8.01;57.49
67842;BME280;54642;59.126;37.876;2023-02-22T10:47:22;99572.69;;;-8.30;57.82
67842;BME280;54642;59.126;37.876;2023-02-22T10:49:54;99571.06;;;-8.29;57.84
67842;BME280;54642;59.126;37.876;2023-02-22T10:54:51;99631.31;;;-7.89;58.01
67842;BME280;54642;59.126;37.876;2023-02-22T10:57:25;99636.75;;;-7.96;58.17
67842;BME280;54642;59.126;37.876;2023-02-22T10:59:52;99655.97;;;-7.83;57.72
67842;BME280;54642;59.126;37.876;2023-02-22T11:02:30;99637.91;;;-7.78;58.21
67842;BME280;54642;59.126;37.876;2023-02-22T11:04:59;99658.06;;;-7.63;58.19
67842;BME280;54642;59.126;37.876;2023-02-22T11:07:35;99517.13;;;-8.34;58.36
67842;BME280;54642;59.126;37.876;2023-02-22T11:10:04;99626.72;;;-7.68;58.36
67842;BME280;54642;59.126;37.876;2023-02-22T11:12:35;99631.34;;;-7.61;58.23
67842;BME280;54642;59.126;37.876;2023-02-22T11:17:46;99653.94;;;-7.48;57.92
67842;BME280;54642;59.126;37.876;2023-02-22T11:20:22;99658.03;;;-7.50;58.09
67842;BME280;54642;59.126;37.876;2023-02-22T11:22:54;99646.78;;;-7.41;58.10
67842;BME280;54642;59.126;37.876;2023-02-22T11:25:26;99640.91;;;-7.27;58.18
67842;BME280;54642;59.126;37.876;2023-02-22T11:27:53;99604.66;;;-7.44;57.95
67842;BME280;54642;59.126;37.876;2023-02-22T11:32:57;99652.63;;;-6.84;57.67
67842;BME280;54642;59.126;37.876;2023-02-22T11:37:53;99632.34;;;-7.44;57.32
67842;BME280;54642;59.126;37.876;2023-02-22T11:40:21;99662.78;;;-7.54;57.45
67842;BME280;54642;59.126;37.876;2023-02-22T11:42:49;99622.22;;;-7.87;57.65
67842;BME280;54642;59.126;37.876;2023-02-22T11:45:30;99676.38;;;-7.79;57.97
67842;BME280;54642;59.126;37.876;2023-02-22T11:48:01;99644.28;;;-7.83;58.03
67842;BME280;54642;59.126;37.876;2023-02-22T11:50:51;99612.41;;;-7.97;58.58
67842;BME280;54642;59.126;37.876;2023-02-22T11:56:15;99649.72;;;-7.90;58.33
67842;BME280;54642;59.126;37.876;2023-02-22T12:02:04;99668.94;;;-7.77;58.91
67842;BME280;54642;59.126;37.876;2023-02-22T12:04:44;99688.72;;;-7.55;59.03
67842;BME280;54642;59.126;37.876;2023-02-22T12:07:37;99681.16;;;-7.55;58.74
67842;BME280;54642;59.126;37.876;2023-02-22T12:13:23;99654.22;;;-7.43;58.43
67842;BME280;54642;59.126;37.876;2023-02-22T12:21:14;99667.69;;;-6.99;57.99
67842;BME280;54642;59.126;37.876;2023-02-22T12:26:29;99675.22;;;-6.41;57.41
67842;BME280;54642;59.126;37.876;2023-02-22T12:31:53;99615.63;;;-6.24;56.95
67842;BME280;54642;59.126;37.876;2023-02-22T12:34:30;99683.56;;;-5.65;57.07
67842;BME280;54642;59.126;37.876;2023-02-22T12:43:33;99682.22;;;-5.58;56.40
67842;BME280;54642;59.126;37.876;2023-02-22T12:48:45;99687.13;;;-6.24;56.57
67842;BME280;54642;59.126;37.876;2023-02-22T12:51:34;99679.38;;;-6.27;56.60
67842;BME280;54642;59.126;37.876;2023-02-22T12:54:12;99681.75;;;-6.45;56.43
67842;BME280;54642;59.126;37.876;2023-02-22T12:56:45;99693.03;;;-6.53;55.89
67842;BME280;54642;59.126;37.876;2023-02-22T13:01:52;99695.78;;;-6.93;56.71
67842;BME280;54642;59.126;37.876;2023-02-22T13:04:19;99663.97;;;-7.06;57.64
67842;BME280;54642;59.126;37.876;2023-02-22T13:15:25;99712.66;;;-6.77;57.91
67842;BME280;54642;59.126;37.876;2023-02-22T13:25:56;99714.94;;;-6.52;57.49
67842;BME280;54642;59.126;37.876;2023-02-22T13:28:43;99722.44;;;-6.24;57.77
67842;BME280;54642;59.126;37.876;2023-02-22T13:37:18;99604.31;;;-6.62;57.36
67842;BME280;54642;59.126;37.876;2023-02-22T13:54:22;99753.47;;;-6.40;56.26
67842;BME280;54642;59.126;37.876;2023-02-22T13:56:51;99743.78;;;-6.62;56.82
67842;BME280;54642;59.126;37.876;2023-02-22T13:59:23;99773.25;;;-6.61;56.80
67842;BME280;54642;59.126;37.876;2023-02-22T14:01:50;99753.50;;;-6.68;57.11
67842;BME280;54642;59.126;37.876;2023-02-22T14:04:34;99753.09;;;-6.61;57.34
67842;BME280;54642;59.126;37.876;2023-02-22T14:07:48;99757.59;;;-6.70;56.88
67842;BME280;54642;59.126;37.876;2023-02-22T14:09:55;99762.69;;;-6.83;56.86
67842;BME280;54642;59.126;37.876;2023-02-22T14:22:45;99762.09;;;-7.49;57.18
67842;BME280;54642;59.126;37.876;2023-02-22T14:25:34;99797.63;;;-7.58;57.25
67842;BME280;54642;59.126;37.876;2023-02-22T14:28:05;99701.75;;;-8.16;57.13
67842;BME280;54642;59.126;37.876;2023-02-22T14:30:34;99770.22;;;-7.93;57.45
67842;BME280;54642;59.126;37.876;2023-02-22T14:33:01;99740.72;;;-8.22;57.58
67842;BME280;54642;59.126;37.876;2023-02-22T14:35:35;99749.50;;;-8.29;57.97
67842;BME280;54642;59.126;37.876;2023-02-22T14:38:05;99786.94;;;-8.07;58.10
67842;BME280;54642;59.126;37.876;2023-02-22T14:40:39;99765.53;;;-8.27;58.32
67842;BME280;54642;59.126;37.876;2023-02-22T14:43:10;99783.09;;;-8.15;58.08
67842;BME280;54642;59.126;37.876;2023-02-22T14:45:46;99777.25;;;-8.28;58.54
67842;BME280;54642;59.126;37.876;2023-02-22T14:48:26;99791.44;;;-8.28;58.33
67842;BME280;54642;59.126;37.876;2023-02-22T14:51:00;99779.56;;;-8.31;58.61
67842;BME280;54642;59.126;37.876;2023-02-22T14:53:43;99794.38;;;-8.22;58.08
67842;BME280;54642;59.126;37.876;2023-02-22T14:56:18;99789.13;;;-8.25;58.77
67842;BME280;54642;59.126;37.876;2023-02-22T14:59:14;99811.38;;;-8.18;58.39
67842;BME280;54642;59.126;37.876;2023-02-22T15:01:41;99795.75;;;-8.39;58.73
67842;BME280;54642;59.126;37.876;2023-02-22T15:06:43;99820.25;;;-8.36;58.17
67842;BME280;54642;59.126;37.876;2023-02-22T15:09:20;99831.16;;;-8.36;58.31
67842;BME280;54642;59.126;37.876;2023-02-22T15:11:50;99828.72;;;-8.48;58.76
67842;BME280;54642;59.126;37.876;2023-02-22T15:14:22;99790.25;;;-8.85;58.77
67842;BME280;54642;59.126;37.876;2023-02-22T15:17:01;99844.00;;;-8.70;58.76